Terminal Aerodrome Forecast
Issued by NWS

Home | Current Version | Previous Version | Text Only | Print | Product List | Glossary On
Versions: 1 2 3 4 5 6 7 8 9 10 11 12 13
000
FTUS45 KTFX 280533
TAFHLN
TAF
KHLN 280533Z 2806/2906 28012G22KT P6SM VCSH SCT060 BKN100
     FM280900 26010KT P6SM SCT060 BKN120
     FM281900 28014G21KT P6SM FEW050 SCT120=

USA.gov is the U.S. government's official web portal to all federal, state and local government web resources and services.